AAL1836 KDFW-KSAT
Flight info
| Callsign | AAL1836 |
|---|---|
| Flight time | 0h 54m |
| Altitude | 24000 |
| Route | JASPA7 WINDU QERVO3 |
| Aircraft | A319/M-VGDW/C |
Departure
| Time | 2026-05-01 10:37 |
|---|---|
| Airport | Dallas Fort Worth International Airport (KDFW) |
Arrival
| Time | 2026-05-01 11:32 |
|---|---|
| Airport | San Antonio International Airport (KSAT) |
| Time | Latitude | Longitude | Altitude | Speed | Heading |
|---|---|---|---|---|---|
| 2026-05-01 10:24 | 32.90030 | -97.03680 | 590 ft | 0 kts | 186° |
| 2026-05-01 10:28 | 32.90041 | -97.03680 | 590 ft | 2 kts | 185° |
| 2026-05-01 10:28 | 32.90055 | -97.03677 | 589 ft | 2 kts | 186° |
| 2026-05-01 10:29 | 32.90081 | -97.03677 | 589 ft | 2 kts | 159° |
| 2026-05-01 10:29 | 32.90094 | -97.03687 | 590 ft | 2 kts | 137° |
| 2026-05-01 10:30 | 32.90105 | -97.03710 | 590 ft | 1 kts | 100° |
| 2026-05-01 10:30 | 32.90106 | -97.03715 | 590 ft | 0 kts | 101° |
| 2026-05-01 10:32 | 32.90091 | -97.03585 | 588 ft | 16 kts | 89° |
| 2026-05-01 10:32 | 32.90091 | -97.03436 | 585 ft | 19 kts | 91° |
| 2026-05-01 10:32 | 32.90005 | -97.03315 | 582 ft | 16 kts | 182° |
| 2026-05-01 10:33 | 32.89715 | -97.03316 | 579 ft | 22 kts | 180° |
| 2026-05-01 10:33 | 32.89391 | -97.03319 | 576 ft | 23 kts | 179° |
| 2026-05-01 10:34 | 32.89225 | -97.03319 | 576 ft | 23 kts | 179° |
| 2026-05-01 10:34 | 32.89056 | -97.03320 | 574 ft | 25 kts | 180° |
| 2026-05-01 10:34 | 32.88893 | -97.03322 | 573 ft | 22 kts | 180° |
| 2026-05-01 10:35 | 32.88574 | -97.03321 | 573 ft | 21 kts | 179° |
| 2026-05-01 10:35 | 32.88467 | -97.03291 | 572 ft | 16 kts | 167° |
| 2026-05-01 10:35 | 32.88341 | -97.03289 | 570 ft | 19 kts | 180° |
| 2026-05-01 10:35 | 32.88199 | -97.03289 | 569 ft | 20 kts | 180° |
| 2026-05-01 10:36 | 32.87976 | -97.03229 | 564 ft | 15 kts | 91° |
| 2026-05-01 10:36 | 32.87977 | -97.03093 | 564 ft | 14 kts | 88° |
| 2026-05-01 10:36 | 32.88002 | -97.03015 | 566 ft | 10 kts | 28° |
| 2026-05-01 10:37 | 32.88156 | -97.03005 | 566 ft | 51 kts | 1° |
| 2026-05-01 10:37 | 32.89832 | -97.03005 | 877 ft | 161 kts | 2° |
| 2026-05-01 10:37 | 32.90880 | -97.03032 | 1789 ft | 152 kts | 360° |
| 2026-05-01 10:38 | 32.91911 | -97.03082 | 2578 ft | 152 kts | 359° |
| 2026-05-01 10:38 | 32.93014 | -97.03019 | 3071 ft | 167 kts | 13° |
| 2026-05-01 10:38 | 32.94177 | -97.02622 | 3609 ft | 182 kts | 18° |
| 2026-05-01 10:38 | 32.95423 | -97.02129 | 4175 ft | 200 kts | 18° |
| 2026-05-01 10:39 | 32.96800 | -97.01602 | 4769 ft | 218 kts | 17° |
| 2026-05-01 10:39 | 32.98304 | -97.01053 | 5379 ft | 236 kts | 16° |
| 2026-05-01 10:39 | 32.99884 | -97.00346 | 6066 ft | 252 kts | 30° |
| 2026-05-01 10:39 | 33.01123 | -96.98915 | 6961 ft | 261 kts | 55° |
| 2026-05-01 10:40 | 33.01736 | -96.96847 | 7754 ft | 276 kts | 83° |
| 2026-05-01 10:40 | 33.01641 | -96.94527 | 8522 ft | 288 kts | 94° |
| 2026-05-01 10:40 | 33.01402 | -96.92148 | 9388 ft | 294 kts | 95° |
| 2026-05-01 10:40 | 33.01174 | -96.89720 | 10235 ft | 299 kts | 94° |
| 2026-05-01 10:41 | 33.00827 | -96.87208 | 10843 ft | 316 kts | 105° |
| 2026-05-01 10:41 | 32.99919 | -96.84760 | 11286 ft | 336 kts | 122° |
| 2026-05-01 10:41 | 32.96762 | -96.80375 | 12661 ft | 356 kts | 145° |
| 2026-05-01 10:42 | 32.94574 | -96.79104 | 13500 ft | 355 kts | 168° |
| 2026-05-01 10:42 | 32.92136 | -96.78857 | 14309 ft | 354 kts | 185° |
| 2026-05-01 10:42 | 32.89677 | -96.78971 | 15082 ft | 359 kts | 185° |
| 2026-05-01 10:42 | 32.87157 | -96.79055 | 15811 ft | 364 kts | 185° |
| 2026-05-01 10:43 | 32.84643 | -96.79115 | 16521 ft | 369 kts | 185° |
| 2026-05-01 10:43 | 32.82051 | -96.79165 | 17134 ft | 376 kts | 185° |
| 2026-05-01 10:43 | 32.79393 | -96.79215 | 17584 ft | 387 kts | 185° |
| 2026-05-01 10:43 | 32.76713 | -96.79469 | 18228 ft | 388 kts | 194° |
| 2026-05-01 10:44 | 32.74123 | -96.80226 | 18903 ft | 385 kts | 204° |
| 2026-05-01 10:44 | 32.71648 | -96.81448 | 19556 ft | 385 kts | 210° |
| 2026-05-01 10:44 | 32.69248 | -96.82807 | 20177 ft | 388 kts | 211° |
| 2026-05-01 10:44 | 32.66805 | -96.84219 | 20786 ft | 391 kts | 212° |
| 2026-05-01 10:45 | 32.64372 | -96.85622 | 21354 ft | 395 kts | 212° |
| 2026-05-01 10:45 | 32.61890 | -96.87047 | 21719 ft | 404 kts | 212° |
| 2026-05-01 10:45 | 32.59327 | -96.88511 | 22185 ft | 410 kts | 212° |
| 2026-05-01 10:45 | 32.56760 | -96.89970 | 22729 ft | 413 kts | 212° |
| 2026-05-01 10:46 | 32.54155 | -96.91445 | 23261 ft | 416 kts | 212° |
| 2026-05-01 10:46 | 32.51546 | -96.92922 | 23756 ft | 419 kts | 212° |
| 2026-05-01 10:46 | 32.48918 | -96.94408 | 24017 ft | 421 kts | 212° |
| 2026-05-01 10:46 | 32.46293 | -96.95892 | 24048 ft | 420 kts | 212° |
| 2026-05-01 10:47 | 32.43665 | -96.97375 | 24056 ft | 420 kts | 212° |
| 2026-05-01 10:47 | 32.41014 | -96.98871 | 24058 ft | 419 kts | 212° |
| 2026-05-01 10:47 | 32.38384 | -97.00352 | 24058 ft | 418 kts | 212° |
| 2026-05-01 10:47 | 32.35773 | -97.01823 | 24057 ft | 417 kts | 212° |
| 2026-05-01 10:48 | 32.33146 | -97.03303 | 24054 ft | 416 kts | 212° |
| 2026-05-01 10:48 | 32.30503 | -97.04630 | 24050 ft | 421 kts | 206° |
| 2026-05-01 10:48 | 32.27664 | -97.05566 | 24046 ft | 427 kts | 199° |
| 2026-05-01 10:48 | 32.24707 | -97.06041 | 24041 ft | 432 kts | 191° |
| 2026-05-01 10:49 | 32.21679 | -97.06187 | 24040 ft | 426 kts | 188° |
| 2026-05-01 10:49 | 32.18726 | -97.06263 | 24038 ft | 425 kts | 188° |
| 2026-05-01 10:49 | 32.15767 | -97.06333 | 24036 ft | 424 kts | 188° |
| 2026-05-01 10:49 | 32.12828 | -97.06409 | 24034 ft | 425 kts | 188° |
| 2026-05-01 10:50 | 32.09884 | -97.06493 | 24034 ft | 425 kts | 188° |
| 2026-05-01 10:50 | 32.06934 | -97.06580 | 24033 ft | 425 kts | 188° |
| 2026-05-01 10:50 | 32.03952 | -97.06671 | 24033 ft | 424 kts | 188° |
| 2026-05-01 10:50 | 32.01003 | -97.06762 | 24033 ft | 424 kts | 188° |
| 2026-05-01 10:51 | 31.98055 | -97.06853 | 24033 ft | 424 kts | 189° |
| 2026-05-01 10:51 | 31.95095 | -97.06946 | 24032 ft | 424 kts | 189° |
| 2026-05-01 10:51 | 31.92161 | -97.07038 | 24030 ft | 424 kts | 189° |
| 2026-05-01 10:51 | 31.89233 | -97.07129 | 24027 ft | 424 kts | 189° |
| 2026-05-01 10:52 | 31.86271 | -97.07220 | 24025 ft | 424 kts | 188° |
| 2026-05-01 10:52 | 31.83338 | -97.07309 | 24022 ft | 424 kts | 188° |
| 2026-05-01 10:52 | 31.80366 | -97.07400 | 24019 ft | 424 kts | 189° |
| 2026-05-01 10:52 | 31.77441 | -97.07491 | 24016 ft | 424 kts | 189° |
| 2026-05-01 10:53 | 31.74468 | -97.07583 | 24013 ft | 423 kts | 189° |
| 2026-05-01 10:53 | 31.71524 | -97.07674 | 24009 ft | 423 kts | 189° |
| 2026-05-01 10:53 | 31.68592 | -97.07766 | 24006 ft | 423 kts | 189° |
| 2026-05-01 10:53 | 31.65689 | -97.07857 | 24003 ft | 423 kts | 189° |
| 2026-05-01 10:54 | 31.62846 | -97.07945 | 24001 ft | 423 kts | 189° |
| 2026-05-01 10:54 | 31.59890 | -97.08037 | 23999 ft | 423 kts | 189° |
| 2026-05-01 10:54 | 31.56986 | -97.08131 | 23997 ft | 422 kts | 189° |
| 2026-05-01 10:54 | 31.54082 | -97.08425 | 23996 ft | 417 kts | 195° |
| 2026-05-01 10:55 | 31.51262 | -97.09052 | 23996 ft | 411 kts | 201° |
| 2026-05-01 10:55 | 31.48527 | -97.09991 | 23998 ft | 406 kts | 205° |
| 2026-05-01 10:55 | 31.45862 | -97.11034 | 23997 ft | 405 kts | 206° |
| 2026-05-01 10:55 | 31.43187 | -97.12102 | 23999 ft | 406 kts | 206° |
| 2026-05-01 10:56 | 31.40461 | -97.13193 | 24000 ft | 421 kts | 206° |
| 2026-05-01 10:56 | 31.37656 | -97.14307 | 24001 ft | 424 kts | 206° |
| 2026-05-01 10:56 | 31.34889 | -97.15393 | 24004 ft | 423 kts | 206° |
| 2026-05-01 10:56 | 31.32095 | -97.16485 | 24006 ft | 423 kts | 206° |
| 2026-05-01 10:57 | 31.29324 | -97.17567 | 24007 ft | 422 kts | 206° |
| 2026-05-01 10:57 | 31.26504 | -97.18668 | 24007 ft | 421 kts | 206° |
| 2026-05-01 10:57 | 31.23749 | -97.19745 | 24005 ft | 420 kts | 206° |
| 2026-05-01 10:57 | 31.20977 | -97.20828 | 24003 ft | 420 kts | 206° |
| 2026-05-01 10:58 | 31.18202 | -97.21912 | 24001 ft | 420 kts | 206° |
| 2026-05-01 10:58 | 31.15458 | -97.22984 | 23999 ft | 420 kts | 206° |
| 2026-05-01 10:58 | 31.12682 | -97.24068 | 23997 ft | 420 kts | 206° |
| 2026-05-01 10:58 | 31.09912 | -97.25148 | 23997 ft | 420 kts | 206° |
| 2026-05-01 10:59 | 31.07162 | -97.26219 | 23996 ft | 420 kts | 206° |
| 2026-05-01 10:59 | 31.04367 | -97.27308 | 23996 ft | 420 kts | 206° |
| 2026-05-01 10:59 | 31.01636 | -97.28371 | 23997 ft | 419 kts | 205° |
| 2026-05-01 10:59 | 30.98877 | -97.29445 | 23998 ft | 416 kts | 205° |
| 2026-05-01 11:00 | 30.96121 | -97.30517 | 23998 ft | 413 kts | 205° |
| 2026-05-01 11:00 | 30.93430 | -97.31563 | 23998 ft | 411 kts | 205° |
| 2026-05-01 11:00 | 30.90713 | -97.32618 | 23998 ft | 408 kts | 204° |
| 2026-05-01 11:00 | 30.88001 | -97.33668 | 23998 ft | 406 kts | 204° |
| 2026-05-01 11:01 | 30.85323 | -97.34699 | 23996 ft | 410 kts | 204° |
| 2026-05-01 11:01 | 30.82630 | -97.35735 | 23995 ft | 410 kts | 204° |
| 2026-05-01 11:01 | 30.79919 | -97.36778 | 23994 ft | 410 kts | 204° |
| 2026-05-01 11:01 | 30.77225 | -97.37817 | 23993 ft | 411 kts | 204° |
| 2026-05-01 11:02 | 30.74505 | -97.38866 | 23991 ft | 410 kts | 204° |
| 2026-05-01 11:02 | 30.71797 | -97.39912 | 23990 ft | 411 kts | 204° |
| 2026-05-01 11:02 | 30.69113 | -97.40949 | 23988 ft | 411 kts | 204° |
| 2026-05-01 11:02 | 30.66373 | -97.42006 | 23985 ft | 411 kts | 204° |
| 2026-05-01 11:03 | 30.63667 | -97.43050 | 23980 ft | 411 kts | 204° |
| 2026-05-01 11:03 | 30.60972 | -97.44089 | 23975 ft | 411 kts | 204° |
| 2026-05-01 11:03 | 30.58273 | -97.45129 | 23970 ft | 411 kts | 204° |
| 2026-05-01 11:03 | 30.55564 | -97.46173 | 23964 ft | 411 kts | 204° |
| 2026-05-01 11:04 | 30.52847 | -97.47219 | 23960 ft | 411 kts | 204° |
| 2026-05-01 11:04 | 30.50122 | -97.48268 | 23957 ft | 411 kts | 204° |
| 2026-05-01 11:04 | 30.47409 | -97.49311 | 23956 ft | 411 kts | 204° |
| 2026-05-01 11:04 | 30.44719 | -97.50345 | 23955 ft | 411 kts | 204° |
| 2026-05-01 11:05 | 30.41988 | -97.51397 | 23792 ft | 410 kts | 204° |
| 2026-05-01 11:05 | 30.39359 | -97.52548 | 23545 ft | 406 kts | 207° |
| 2026-05-01 11:05 | 30.36789 | -97.53901 | 23294 ft | 402 kts | 211° |
| 2026-05-01 11:05 | 30.34349 | -97.55418 | 23045 ft | 398 kts | 214° |
| 2026-05-01 11:06 | 30.31988 | -97.57037 | 22797 ft | 397 kts | 215° |
| 2026-05-01 11:06 | 30.29616 | -97.58678 | 22545 ft | 396 kts | 215° |
| 2026-05-01 11:06 | 30.27278 | -97.60296 | 22296 ft | 394 kts | 214° |
| 2026-05-01 11:07 | 30.22565 | -97.63556 | 21747 ft | 392 kts | 214° |
| 2026-05-01 11:07 | 30.20242 | -97.65161 | 21407 ft | 390 kts | 214° |
| 2026-05-01 11:07 | 30.17946 | -97.66756 | 20918 ft | 388 kts | 214° |
| 2026-05-01 11:07 | 30.15653 | -97.68353 | 20354 ft | 385 kts | 213° |
| 2026-05-01 11:08 | 30.13364 | -97.69940 | 19772 ft | 381 kts | 213° |
| 2026-05-01 11:08 | 30.11110 | -97.71500 | 19194 ft | 377 kts | 213° |
| 2026-05-01 11:08 | 30.06647 | -97.74576 | 18045 ft | 370 kts | 212° |
| 2026-05-01 11:09 | 30.04478 | -97.76068 | 17487 ft | 366 kts | 212° |
| 2026-05-01 11:09 | 30.02306 | -97.77560 | 16928 ft | 363 kts | 212° |
| 2026-05-01 11:09 | 30.00157 | -97.79036 | 16375 ft | 360 kts | 211° |
| 2026-05-01 11:10 | 29.95872 | -97.81976 | 15270 ft | 356 kts | 211° |
| 2026-05-01 11:10 | 29.93775 | -97.83415 | 14726 ft | 354 kts | 211° |
| 2026-05-01 11:10 | 29.91682 | -97.84938 | 14153 ft | 352 kts | 217° |
| 2026-05-01 11:10 | 29.89962 | -97.86918 | 13598 ft | 351 kts | 232° |
| 2026-05-01 11:11 | 29.88751 | -97.89328 | 13343 ft | 348 kts | 245° |
| 2026-05-01 11:11 | 29.87866 | -97.91873 | 13163 ft | 336 kts | 248° |
| 2026-05-01 11:11 | 29.87061 | -97.94359 | 13003 ft | 323 kts | 248° |
| 2026-05-01 11:11 | 29.86277 | -97.96770 | 12966 ft | 326 kts | 248° |
| 2026-05-01 11:12 | 29.85470 | -97.99205 | 12970 ft | 328 kts | 248° |
| 2026-05-01 11:12 | 29.84589 | -98.01653 | 12967 ft | 327 kts | 242° |
| 2026-05-01 11:12 | 29.83348 | -98.03841 | 12967 ft | 326 kts | 230° |
| 2026-05-01 11:12 | 29.81768 | -98.05701 | 12765 ft | 328 kts | 222° |
| 2026-05-01 11:13 | 29.80061 | -98.07433 | 12247 ft | 326 kts | 220° |
| 2026-05-01 11:13 | 29.78346 | -98.09130 | 11786 ft | 323 kts | 220° |
| 2026-05-01 11:13 | 29.76670 | -98.10792 | 11353 ft | 319 kts | 220° |
| 2026-05-01 11:13 | 29.75003 | -98.12454 | 10942 ft | 315 kts | 221° |
| 2026-05-01 11:14 | 29.73358 | -98.14103 | 10534 ft | 312 kts | 221° |
| 2026-05-01 11:14 | 29.71731 | -98.15738 | 10183 ft | 306 kts | 221° |
| 2026-05-01 11:14 | 29.70178 | -98.17300 | 10110 ft | 291 kts | 221° |
| 2026-05-01 11:14 | 29.68693 | -98.18794 | 10027 ft | 277 kts | 221° |
| 2026-05-01 11:15 | 29.67262 | -98.20234 | 9792 ft | 273 kts | 221° |
| 2026-05-01 11:15 | 29.65843 | -98.21661 | 9449 ft | 271 kts | 222° |
| 2026-05-01 11:15 | 29.64396 | -98.23114 | 8924 ft | 276 kts | 222° |
| 2026-05-01 11:15 | 29.62969 | -98.24547 | 8657 ft | 271 kts | 222° |
| 2026-05-01 11:16 | 29.61567 | -98.25954 | 8349 ft | 268 kts | 222° |
| 2026-05-01 11:16 | 29.60155 | -98.27371 | 8033 ft | 266 kts | 223° |
| 2026-05-01 11:16 | 29.58785 | -98.28745 | 7713 ft | 265 kts | 223° |
| 2026-05-01 11:16 | 29.57395 | -98.30138 | 7401 ft | 263 kts | 223° |
| 2026-05-01 11:17 | 29.56012 | -98.31525 | 7083 ft | 262 kts | 223° |
| 2026-05-01 11:17 | 29.54643 | -98.32897 | 6769 ft | 261 kts | 223° |
| 2026-05-01 11:17 | 29.53286 | -98.34256 | 6462 ft | 260 kts | 223° |
| 2026-05-01 11:17 | 29.51907 | -98.35635 | 6153 ft | 259 kts | 223° |
| 2026-05-01 11:18 | 29.50571 | -98.36973 | 5992 ft | 250 kts | 224° |
| 2026-05-01 11:18 | 29.49301 | -98.38245 | 5982 ft | 235 kts | 224° |
| 2026-05-01 11:18 | 29.48102 | -98.39442 | 5980 ft | 221 kts | 224° |
| 2026-05-01 11:18 | 29.46990 | -98.40602 | 5990 ft | 221 kts | 228° |
| 2026-05-01 11:19 | 29.45965 | -98.41961 | 5988 ft | 222 kts | 236° |
| 2026-05-01 11:19 | 29.45127 | -98.43439 | 5989 ft | 222 kts | 242° |
| 2026-05-01 11:19 | 29.44305 | -98.44941 | 5989 ft | 222 kts | 238° |
| 2026-05-01 11:19 | 29.43410 | -98.46384 | 5989 ft | 223 kts | 237° |
| 2026-05-01 11:20 | 29.42500 | -98.47817 | 5986 ft | 222 kts | 236° |
| 2026-05-01 11:20 | 29.41579 | -98.49254 | 5984 ft | 222 kts | 236° |
| 2026-05-01 11:20 | 29.40662 | -98.50680 | 5983 ft | 223 kts | 236° |
| 2026-05-01 11:20 | 29.39733 | -98.52123 | 5981 ft | 223 kts | 236° |
| 2026-05-01 11:21 | 29.38810 | -98.53556 | 5979 ft | 223 kts | 236° |
| 2026-05-01 11:21 | 29.37887 | -98.54987 | 5977 ft | 223 kts | 236° |
| 2026-05-01 11:21 | 29.36965 | -98.56414 | 5975 ft | 223 kts | 236° |
| 2026-05-01 11:21 | 29.36040 | -98.57847 | 5973 ft | 223 kts | 236° |
| 2026-05-01 11:22 | 29.35136 | -98.59247 | 5971 ft | 223 kts | 236° |
| 2026-05-01 11:22 | 29.34213 | -98.60674 | 5968 ft | 223 kts | 236° |
| 2026-05-01 11:22 | 29.33285 | -98.62110 | 5966 ft | 222 kts | 236° |
| 2026-05-01 11:22 | 29.32371 | -98.63523 | 5963 ft | 222 kts | 236° |
| 2026-05-01 11:23 | 29.31450 | -98.64947 | 5961 ft | 222 kts | 236° |
| 2026-05-01 11:23 | 29.30521 | -98.66389 | 5958 ft | 222 kts | 236° |
| 2026-05-01 11:23 | 29.29613 | -98.67802 | 5957 ft | 222 kts | 236° |
| 2026-05-01 11:23 | 29.28682 | -98.69247 | 5956 ft | 223 kts | 236° |
| 2026-05-01 11:24 | 29.27988 | -98.70803 | 5939 ft | 218 kts | 262° |
| 2026-05-01 11:24 | 29.28155 | -98.72495 | 5949 ft | 217 kts | 295° |
| 2026-05-01 11:24 | 29.30568 | -98.74289 | 5958 ft | 222 kts | 360° |
| 2026-05-01 11:25 | 29.32045 | -98.73761 | 5956 ft | 229 kts | 33° |
| 2026-05-01 11:25 | 29.33119 | -98.70500 | 5698 ft | 233 kts | 104° |
| 2026-05-01 11:25 | 29.32638 | -98.68728 | 5489 ft | 229 kts | 102° |
| 2026-05-01 11:26 | 29.32654 | -98.66946 | 5245 ft | 223 kts | 68° |
| 2026-05-01 11:26 | 29.34583 | -98.64337 | 5179 ft | 211 kts | 36° |
| 2026-05-01 11:26 | 29.35702 | -98.63317 | 5051 ft | 205 kts | 35° |
| 2026-05-01 11:27 | 29.36805 | -98.62294 | 4793 ft | 205 kts | 36° |
| 2026-05-01 11:27 | 29.37884 | -98.61257 | 4522 ft | 202 kts | 37° |
| 2026-05-01 11:27 | 29.38959 | -98.60200 | 4250 ft | 198 kts | 37° |
| 2026-05-01 11:27 | 29.39977 | -98.59191 | 3981 ft | 187 kts | 37° |
| 2026-05-01 11:28 | 29.40935 | -98.58242 | 3741 ft | 177 kts | 37° |
| 2026-05-01 11:28 | 29.41845 | -98.57341 | 3513 ft | 169 kts | 37° |
| 2026-05-01 11:28 | 29.42719 | -98.56477 | 3290 ft | 164 kts | 36° |
| 2026-05-01 11:29 | 29.44382 | -98.54834 | 2851 ft | 151 kts | 36° |
| 2026-05-01 11:29 | 29.45169 | -98.54057 | 2661 ft | 151 kts | 36° |
| 2026-05-01 11:29 | 29.46744 | -98.52502 | 2273 ft | 148 kts | 36° |
| 2026-05-01 11:30 | 29.47520 | -98.51735 | 2075 ft | 144 kts | 36° |
| 2026-05-01 11:30 | 29.48270 | -98.50992 | 1887 ft | 141 kts | 35° |
| 2026-05-01 11:30 | 29.49008 | -98.50264 | 1706 ft | 140 kts | 36° |
| 2026-05-01 11:30 | 29.49751 | -98.49531 | 1521 ft | 140 kts | 37° |
| 2026-05-01 11:31 | 29.50480 | -98.48800 | 1362 ft | 141 kts | 37° |
| 2026-05-01 11:31 | 29.51265 | -98.48043 | 1155 ft | 148 kts | 37° |
| 2026-05-01 11:31 | 29.52017 | -98.47285 | 912 ft | 142 kts | 37° |
| 2026-05-01 11:31 | 29.52720 | -98.46596 | 825 ft | 122 kts | 36° |
| 2026-05-01 11:32 | 29.53221 | -98.46111 | 818 ft | 52 kts | 39° |
| 2026-05-01 11:32 | 29.53361 | -98.45970 | 818 ft | 13 kts | 34° |
| 2026-05-01 11:32 | 29.53439 | -98.45996 | 818 ft | 11 kts | 310° |
| 2026-05-01 11:32 | 29.53433 | -98.46078 | 818 ft | 12 kts | 221° |
| 2026-05-01 11:33 | 29.53361 | -98.46152 | 818 ft | 14 kts | 220° |
| 2026-05-01 11:33 | 29.53279 | -98.46232 | 818 ft | 16 kts | 220° |
| 2026-05-01 11:33 | 29.53187 | -98.46323 | 818 ft | 18 kts | 220° |
| 2026-05-01 11:33 | 29.53089 | -98.46420 | 818 ft | 19 kts | 219° |
| 2026-05-01 11:34 | 29.52984 | -98.46524 | 818 ft | 20 kts | 221° |
| 2026-05-01 11:34 | 29.52873 | -98.46633 | 818 ft | 21 kts | 219° |
| 2026-05-01 11:34 | 29.52777 | -98.46726 | 818 ft | 13 kts | 223° |
| 2026-05-01 11:34 | 29.52769 | -98.46806 | 818 ft | 10 kts | 309° |
| 2026-05-01 11:35 | 29.52801 | -98.46849 | 818 ft | 1 kts | 311° |
| 2026-05-01 11:35 | 29.52827 | -98.46879 | 818 ft | 10 kts | 314° |
| 2026-05-01 11:35 | 29.52880 | -98.46960 | 818 ft | 9 kts | 274° |
| 2026-05-01 11:35 | 29.52848 | -98.47034 | 818 ft | 11 kts | 238° |
| 2026-05-01 11:36 | 29.52817 | -98.47090 | 818 ft | 7 kts | 225° |
| 2026-05-01 11:36 | 29.52773 | -98.47122 | 818 ft | 6 kts | 215° |
| 2026-05-01 11:36 | 29.52772 | -98.47156 | 818 ft | 5 kts | 320° |
| 2026-05-01 11:36 | 29.52801 | -98.47173 | 818 ft | 5 kts | 330° |
| 2026-05-01 11:37 | 29.52826 | -98.47190 | 818 ft | 1 kts | 330° |
| 2026-05-01 11:37 | 29.52829 | -98.47192 | 818 ft | 0 kts | 330° |